createdAt,value
2022-10-23T00:01:19.958Z,100616.53
2022-10-23T00:03:47.146Z,100617.31
2022-10-23T00:06:14.548Z,100617.38
2022-10-23T00:08:41.435Z,100609.56
2022-10-23T00:11:09.815Z,100609.56
2022-10-23T00:13:36.443Z,100612.19
2022-10-23T00:16:02.862Z,100609.41
2022-10-23T00:18:29.247Z,100608.22
2022-10-23T00:20:56.443Z,100613.81
2022-10-23T00:23:23.190Z,100622.53
2022-10-23T00:25:49.524Z,100615.78
2022-10-23T00:28:15.883Z,100623.69
2022-10-23T00:30:42.480Z,100627.28
2022-10-23T00:33:09.244Z,100626.41
2022-10-23T00:35:39.679Z,100617.75
2022-10-23T00:38:06.692Z,100616.94
2022-10-23T00:40:33.180Z,100613.50
2022-10-23T00:42:59.483Z,100607.81
2022-10-23T00:45:28.562Z,100608.66
2022-10-23T00:47:55.312Z,100608.38
2022-10-23T00:50:23.825Z,100612.22
2022-10-23T00:52:53.011Z,100607.81
2022-10-23T00:55:23.299Z,100614.66
2022-10-23T00:57:50.801Z,100599.75
2022-10-23T01:00:27.021Z,100597.91
2022-10-23T01:02:54.654Z,100608.16
2022-10-23T01:05:27.189Z,100609.06
2022-10-23T01:08:02.337Z,100618.50
2022-10-23T01:10:45.338Z,100606.09
2022-10-23T01:13:16.646Z,100606.03
2022-10-23T01:15:49.015Z,100598.47
2022-10-23T01:18:24.896Z,100592.47
2022-10-23T01:21:04.970Z,100594.44
2022-10-23T01:23:46.305Z,100592.47
2022-10-23T01:26:43.987Z,100600.09
2022-10-23T01:29:18.923Z,100599.59
2022-10-23T01:31:49.205Z,100603.50
2022-10-23T01:34:22.226Z,100595.81
2022-10-23T01:36:51.677Z,100591.78
2022-10-23T01:39:30.944Z,100587.69
2022-10-23T01:42:08.715Z,100591.56
2022-10-23T01:44:46.720Z,100589.41
2022-10-23T01:47:15.923Z,100583.72
2022-10-23T01:49:44.416Z,100586.75
2022-10-23T01:52:14.115Z,100585.97
2022-10-23T01:54:44.679Z,100591.78
2022-10-23T01:57:16.106Z,100595.88
2022-10-23T01:59:49.520Z,100583.69
2022-10-23T02:02:17.465Z,100580.97
2022-10-23T02:04:58.819Z,100588.09
2022-10-23T02:07:25.266Z,100592.69
2022-10-23T02:09:52.054Z,100592.41
2022-10-23T02:12:40.285Z,100582.34
2022-10-23T02:15:14.781Z,100575.28
2022-10-23T02:18:17.219Z,100571.81
2022-10-23T02:20:48.146Z,100576.63
2022-10-23T02:23:21.538Z,100572.03
2022-10-23T02:25:56.800Z,100568.59
2022-10-23T02:28:34.206Z,100566.00
2022-10-23T02:31:03.836Z,100557.03
2022-10-23T02:33:31.276Z,100545.88
2022-10-23T02:35:57.725Z,100548.63
2022-10-23T02:38:29.770Z,100550.22
2022-10-23T02:41:00.938Z,100553.19
2022-10-23T02:43:37.208Z,100550.81
2022-10-23T02:46:14.538Z,100544.22
2022-10-23T02:48:51.530Z,100541.69
2022-10-23T02:51:20.627Z,100548.50
2022-10-23T02:54:31.476Z,100542.59
2022-10-23T02:57:40.833Z,100537.38
2022-10-23T03:00:15.234Z,100533.50
2022-10-23T03:02:54.758Z,100527.59
2022-10-23T03:05:25.542Z,100517.25
2022-10-23T03:07:52.027Z,100514.81
2022-10-23T03:10:18.423Z,100518.84
2022-10-23T03:12:45.096Z,100515.59
2022-10-23T03:15:11.857Z,100516.41
2022-10-23T03:17:38.409Z,100502.94
2022-10-23T03:20:06.449Z,100509.91
2022-10-23T03:22:32.876Z,100503.38
2022-10-23T03:24:59.211Z,100505.34
2022-10-23T03:27:25.665Z,100504.81
2022-10-23T03:29:52.051Z,100497.56
2022-10-23T03:32:18.419Z,100502.75
2022-10-23T03:34:44.767Z,100511.19
2022-10-23T03:37:11.123Z,100511.25
2022-10-23T03:39:37.449Z,100506.34
2022-10-23T03:42:04.035Z,100505.31
2022-10-23T03:44:30.400Z,100519.94
2022-10-23T03:46:57.431Z,100515.56
2022-10-23T03:49:23.735Z,100522.00
2022-10-23T03:51:50.084Z,100510.03
2022-10-23T03:54:16.402Z,100506.78
2022-10-23T03:56:42.703Z,100515.41
2022-10-23T03:59:09.051Z,100513.19
2022-10-23T04:01:35.470Z,100508.28
2022-10-23T04:04:01.925Z,100505.00
2022-10-23T04:06:28.262Z,100500.00
2022-10-23T04:08:54.729Z,100491.31
2022-10-23T04:11:21.040Z,100482.78
2022-10-23T04:13:47.510Z,100489.56
2022-10-23T04:16:13.837Z,100491.19
2022-10-23T04:18:41.441Z,100486.81
2022-10-23T04:21:07.958Z,100484.09
2022-10-23T04:23:34.267Z,100479.75
2022-10-23T04:26:00.653Z,100490.50
2022-10-23T04:28:27.496Z,100489.97
2022-10-23T04:30:53.940Z,100485.66
2022-10-23T04:33:21.359Z,100482.38
2022-10-23T04:35:47.708Z,100485.03
2022-10-23T04:38:14.008Z,100486.03
2022-10-23T04:40:40.369Z,100487.72
2022-10-23T04:43:06.706Z,100479.50
2022-10-23T04:45:33.050Z,100474.41
2022-10-23T04:47:59.371Z,100473.28
2022-10-23T04:50:25.987Z,100467.53
2022-10-23T04:52:58.690Z,100471.09
2022-10-23T04:55:25.043Z,100469.13
2022-10-23T04:57:52.182Z,100466.94
2022-10-23T05:00:19.216Z,100464.81
2022-10-23T05:02:45.823Z,100460.16
2022-10-23T05:05:12.159Z,100471.31
2022-10-23T05:07:38.854Z,100468.13
2022-10-23T05:10:06.448Z,100468.56
2022-10-23T05:12:32.757Z,100467.69
2022-10-23T05:14:59.074Z,100478.81
2022-10-23T05:17:34.399Z,100462.91
2022-10-23T05:20:05.107Z,100466.44
2022-10-23T05:22:35.244Z,100456.69
2022-10-23T05:25:01.898Z,100457.50
2022-10-23T05:27:28.275Z,100454.47
2022-10-23T05:29:54.593Z,100452.34
2022-10-23T05:34:54.038Z,100450.22
2022-10-23T05:37:20.453Z,100445.59
2022-10-23T05:39:46.914Z,100443.72
2022-10-23T05:42:13.374Z,100436.00
2022-10-23T05:44:39.762Z,100429.56
2022-10-23T05:47:07.659Z,100430.88
2022-10-23T05:49:34.515Z,100425.38
2022-10-23T05:52:00.817Z,100422.88
2022-10-23T05:54:27.190Z,100415.88
2022-10-23T05:56:53.490Z,100413.59
2022-10-23T05:59:22.865Z,100429.28
2022-10-23T06:01:49.987Z,100424.00
2022-10-23T06:04:16.381Z,100413.66
2022-10-23T06:06:45.621Z,100405.44
2022-10-23T06:09:12.199Z,100404.06
2022-10-23T06:11:38.551Z,100396.84
2022-10-23T06:14:04.877Z,100403.31
2022-10-23T06:16:31.217Z,100407.31
2022-10-23T06:18:57.570Z,100407.25
2022-10-23T06:21:24.363Z,100400.22
2022-10-23T06:23:50.744Z,100398.16
2022-10-23T06:26:18.457Z,100401.00
2022-10-23T06:28:45.257Z,100390.34
2022-10-23T06:31:14.797Z,100394.78
2022-10-23T06:33:41.963Z,100401.03
2022-10-23T06:36:08.807Z,100400.66
2022-10-23T06:38:35.114Z,100396.53
2022-10-23T06:41:01.440Z,100390.69
2022-10-23T06:43:27.760Z,100394.66
2022-10-23T06:45:54.108Z,100395.66
2022-10-23T06:48:20.603Z,100397.94
2022-10-23T06:50:46.971Z,100403.09
2022-10-23T06:53:13.361Z,100395.94
2022-10-23T06:55:39.720Z,100398.47
2022-10-23T06:58:07.128Z,100392.53
2022-10-23T07:00:33.461Z,100393.25
2022-10-23T07:02:59.854Z,100399.66
2022-10-23T07:05:26.195Z,100401.88
2022-10-23T07:07:52.506Z,100401.25
2022-10-23T07:10:18.824Z,100398.25
2022-10-23T07:12:45.655Z,100396.03
2022-10-23T07:15:12.157Z,100398.44
2022-10-23T07:17:38.473Z,100401.06
2022-10-23T07:20:05.203Z,100405.88
2022-10-23T07:22:31.510Z,100406.78
2022-10-23T07:24:57.880Z,100404.13
2022-10-23T07:27:25.120Z,100404.34
2022-10-23T07:29:52.299Z,100407.34
2022-10-23T07:32:19.340Z,100408.44
2022-10-23T07:34:45.726Z,100402.63
2022-10-23T07:37:12.086Z,100397.25
2022-10-23T07:39:38.408Z,100392.41
2022-10-23T07:42:04.837Z,100392.63
2022-10-23T07:44:31.155Z,100391.75
2022-10-23T07:46:57.445Z,100382.72
2022-10-23T07:49:23.770Z,100382.47
2022-10-23T07:51:51.598Z,100372.56
2022-10-23T07:54:18.190Z,100375.00
2022-10-23T07:56:44.553Z,100375.28
2022-10-23T07:59:12.634Z,100382.75
2022-10-23T08:01:39.894Z,100377.84
2022-10-23T08:04:06.721Z,100391.53
2022-10-23T08:06:33.706Z,100397.59
2022-10-23T08:09:02.369Z,100391.88
2022-10-23T08:11:32.444Z,100382.88
2022-10-23T08:13:58.797Z,100376.47
2022-10-23T08:16:25.600Z,100370.19
2022-10-23T08:18:52.037Z,100372.78
2022-10-23T08:21:18.736Z,100379.38
2022-10-23T08:23:45.060Z,100367.25
2022-10-23T08:26:11.860Z,100363.72
2022-10-23T08:28:38.465Z,100360.69
2022-10-23T08:31:14.216Z,100349.63
2022-10-23T08:33:41.090Z,100354.88
2022-10-23T08:36:16.935Z,100345.91
2022-10-23T08:38:43.555Z,100344.97
2022-10-23T08:41:27.277Z,100351.56
2022-10-23T08:44:18.806Z,100349.47
2022-10-23T08:46:50.525Z,100357.31
2022-10-23T08:49:26.031Z,100364.22
2022-10-23T08:51:56.826Z,100356.34
2022-10-23T08:54:44.983Z,100367.06
2022-10-23T08:57:15.632Z,100357.13
2022-10-23T08:59:48.899Z,100346.69
2022-10-23T09:02:25.927Z,100339.72
2022-10-23T09:04:54.329Z,100344.53
2022-10-23T09:07:57.963Z,100343.31
2022-10-23T09:10:48.049Z,100341.63
2022-10-23T09:13:32.085Z,100344.84
2022-10-23T09:16:21.730Z,100343.91
2022-10-23T09:18:49.678Z,100337.16
2022-10-23T09:21:16.061Z,100331.19
2022-10-23T09:23:42.658Z,100328.09
2022-10-23T09:26:15.345Z,100325.09
2022-10-23T09:29:02.082Z,100330.22
2022-10-23T09:31:28.419Z,100332.59
2022-10-23T09:33:57.049Z,100321.69
2022-10-23T09:36:24.476Z,100319.47
2022-10-23T09:38:53.078Z,100318.28
2022-10-23T09:41:23.198Z,100306.63
2022-10-23T09:44:07.615Z,100308.97
2022-10-23T09:46:43.311Z,100300.53
2022-10-23T09:49:18.121Z,100300.72
2022-10-23T09:52:01.361Z,100297.72
2022-10-23T09:54:30.711Z,100290.97
2022-10-23T09:57:03.462Z,100282.63
2022-10-23T09:59:31.150Z,100287.75
2022-10-23T10:02:02.277Z,100284.16
2022-10-23T10:04:41.707Z,100280.03
2022-10-23T10:07:36.650Z,100282.09
2022-10-23T10:10:13.599Z,100272.16
2022-10-23T10:12:52.866Z,100274.16
2022-10-23T10:15:43.222Z,100274.78
2022-10-23T10:18:18.284Z,100279.56
2022-10-23T10:21:03.383Z,100273.28
2022-10-23T10:23:45.459Z,100275.72
2022-10-23T10:29:11.794Z,100272.94
2022-10-23T10:31:58.957Z,100276.00
2022-10-23T10:34:55.136Z,100264.94
2022-10-23T10:37:31.826Z,100262.78
2022-10-23T10:40:23.338Z,100259.47
2022-10-23T10:43:00.540Z,100264.06
2022-10-23T10:45:38.357Z,100256.19
2022-10-23T10:48:39.927Z,100252.88
2022-10-23T10:51:23.942Z,100248.88
2022-10-23T10:54:27.720Z,100234.50
2022-10-23T10:56:55.400Z,100239.97
2022-10-23T10:59:28.035Z,100239.28
2022-10-23T11:02:20.093Z,100229.44
2022-10-23T11:05:06.743Z,100222.72
2022-10-23T11:07:42.257Z,100219.53
2022-10-23T11:10:17.593Z,100216.44
2022-10-23T11:12:46.831Z,100210.03
2022-10-23T11:15:20.633Z,100208.31
2022-10-23T11:17:51.076Z,100208.31
2022-10-23T11:20:55.852Z,100195.84
2022-10-23T11:23:48.008Z,100192.78
2022-10-23T11:26:34.110Z,100198.59
2022-10-23T11:29:18.894Z,100181.84
2022-10-23T11:32:03.410Z,100166.81
2022-10-23T11:34:57.741Z,100168.47
2022-10-23T11:37:24.530Z,100170.25
2022-10-23T11:40:01.722Z,100155.94
2022-10-23T11:42:40.176Z,100154.81
2022-10-23T11:45:33.162Z,100148.91
2022-10-23T11:48:20.907Z,100134.03
2022-10-23T11:50:47.196Z,100133.03
2022-10-23T11:53:32.215Z,100134.09
2022-10-23T11:56:13.470Z,100125.25
2022-10-23T11:58:49.456Z,100130.44
2022-10-23T12:01:37.396Z,100130.94
2022-10-23T12:04:14.891Z,100124.47
2022-10-23T12:06:54.269Z,100118.09
2022-10-23T12:09:29.839Z,100119.88
2022-10-23T12:12:14.760Z,100116.47
2022-10-23T12:14:45.616Z,100107.13
2022-10-23T12:17:24.200Z,100104.91
2022-10-23T12:19:54.976Z,100101.72
2022-10-23T12:22:32.702Z,100095.31
2022-10-23T12:25:08.663Z,100092.81
2022-10-23T12:27:45.872Z,100066.75
2022-10-23T12:30:32.742Z,100066.91
2022-10-23T12:33:29.046Z,100078.94
2022-10-23T12:36:24.995Z,100064.09
2022-10-23T12:38:51.294Z,100067.72
2022-10-23T12:41:24.121Z,100054.28
2022-10-23T12:43:55.800Z,100049.06
2022-10-23T12:46:30.308Z,100037.59
2022-10-23T12:48:58.304Z,100013.31
2022-10-23T12:51:29.761Z,100011.19
2022-10-23T12:53:56.670Z,100008.03
2022-10-23T12:56:25.103Z,100013.38
2022-10-23T12:58:55.504Z,100011.34
2022-10-23T13:01:33.781Z,100027.59
2022-10-23T13:04:31.998Z,100029.81
2022-10-23T13:07:00.711Z,100026.91
2022-10-23T13:09:40.846Z,100019.16
2022-10-23T13:12:14.822Z,100015.97
2022-10-23T13:14:54.127Z,100027.88
2022-10-23T13:17:20.449Z,100012.53
2022-10-23T13:19:46.849Z,100002.84
2022-10-23T13:22:20.849Z,99998.06
2022-10-23T13:24:47.764Z,100000.78
2022-10-23T13:27:33.511Z,99991.03
2022-10-23T13:30:00.206Z,99986.13
2022-10-23T13:32:30.014Z,99969.91
2022-10-23T13:35:10.029Z,99977.03
2022-10-23T13:40:24.567Z,99955.25
2022-10-23T13:42:52.754Z,99958.16
2022-10-23T13:45:22.994Z,99957.97
2022-10-23T13:47:49.826Z,99961.59
2022-10-23T13:50:17.063Z,99947.66
2022-10-23T13:52:43.419Z,99943.03
2022-10-23T13:55:22.943Z,99934.97
2022-10-23T13:57:49.488Z,99935.44
2022-10-23T14:00:16.494Z,99918.22
2022-10-23T14:02:43.477Z,99903.25
2022-10-23T14:05:10.482Z,99902.38
2022-10-23T14:07:36.856Z,99908.19
2022-10-23T14:10:04.227Z,99903.25
2022-10-23T14:12:30.628Z,99912.09
2022-10-23T14:14:56.969Z,99903.38
2022-10-23T14:17:23.299Z,99894.88
2022-10-23T14:19:49.622Z,99891.47
2022-10-23T14:22:15.962Z,99891.78
2022-10-23T14:24:42.287Z,99897.38
2022-10-23T14:27:08.604Z,99897.56
2022-10-23T14:29:35.050Z,99889.91
2022-10-23T14:32:01.345Z,99889.19
2022-10-23T14:34:27.686Z,99886.19
2022-10-23T14:37:07.396Z,99886.97
2022-10-23T14:39:34.815Z,99874.59
2022-10-23T14:42:01.191Z,99873.47
2022-10-23T14:44:27.549Z,99862.84
2022-10-23T14:46:53.879Z,99860.31
2022-10-23T14:49:20.230Z,99857.47
2022-10-23T14:51:46.531Z,99850.56
2022-10-23T14:54:12.854Z,99864.22
2022-10-23T14:56:39.250Z,99864.28
2022-10-23T14:59:05.565Z,99854.81
2022-10-23T15:01:34.358Z,99851.44
2022-10-23T15:04:00.772Z,99849.78
2022-10-23T15:06:27.220Z,99841.94
2022-10-23T15:08:54.102Z,99816.88
2022-10-23T15:11:20.873Z,99817.06
2022-10-23T15:13:47.313Z,99810.94
2022-10-23T15:16:13.790Z,99800.84
2022-10-23T15:18:40.140Z,99809.25
2022-10-23T15:21:08.058Z,99811.81
2022-10-23T15:23:40.033Z,99817.75
2022-10-23T15:26:16.261Z,99816.22
2022-10-23T15:28:42.588Z,99820.81
2022-10-23T15:31:29.770Z,99824.69
2022-10-23T15:33:56.912Z,99831.94
2022-10-23T15:36:23.427Z,99817.38
2022-10-23T15:38:50.002Z,99820.38
2022-10-23T15:41:21.018Z,99792.88
2022-10-23T15:43:47.486Z,99789.41
2022-10-23T15:46:13.861Z,99786.91
2022-10-23T15:48:40.127Z,99799.25
2022-10-23T15:51:06.383Z,99795.44
2022-10-23T15:53:33.140Z,99800.34
2022-10-23T15:55:59.425Z,99792.84
2022-10-23T15:58:26.182Z,99796.16
2022-10-23T16:00:52.472Z,99779.53
2022-10-23T16:03:18.773Z,99771.56
2022-10-23T16:05:45.117Z,99757.44
2022-10-23T16:08:11.398Z,99753.53
2022-10-23T16:10:42.277Z,99754.13
2022-10-23T16:13:09.101Z,99752.34
2022-10-23T16:15:36.195Z,99748.72
2022-10-23T16:18:02.527Z,99750.19
2022-10-23T16:20:28.907Z,99760.25
2022-10-23T16:22:55.210Z,99756.84
2022-10-23T16:25:21.573Z,99751.63
2022-10-23T16:27:47.954Z,99756.16
2022-10-23T16:30:14.855Z,99764.03
2022-10-23T16:32:41.203Z,99746.59
2022-10-23T16:35:11.019Z,99742.50
2022-10-23T16:37:39.392Z,99730.06
2022-10-23T16:40:06.256Z,99735.88
2022-10-23T16:42:32.582Z,99734.53
2022-10-23T16:44:58.899Z,99743.06
2022-10-23T16:47:26.806Z,99743.16
2022-10-23T16:49:53.111Z,99750.44
2022-10-23T16:52:19.445Z,99771.19
2022-10-23T16:54:45.781Z,99807.41
2022-10-23T16:57:12.108Z,99829.75
2022-10-23T16:59:38.446Z,99837.72
2022-10-23T17:02:05.131Z,99848.66
2022-10-23T17:04:31.613Z,99842.06
2022-10-23T17:06:57.982Z,99844.59
2022-10-23T17:09:24.290Z,99844.56
2022-10-23T17:11:50.610Z,99842.22
2022-10-23T17:14:19.087Z,99837.19
2022-10-23T17:16:51.197Z,99835.31
2022-10-23T17:19:40.018Z,99838.94
2022-10-23T17:22:07.088Z,99853.06
2022-10-23T17:24:33.403Z,99851.97
2022-10-23T17:27:00.149Z,99856.66
2022-10-23T17:29:26.515Z,99846.97
2022-10-23T17:31:52.865Z,99845.50
2022-10-23T17:34:22.275Z,99843.53
2022-10-23T17:36:51.460Z,99853.72
2022-10-23T17:39:21.685Z,99857.44
2022-10-23T17:41:48.564Z,99865.84
2022-10-23T17:44:15.154Z,99858.66
2022-10-23T17:46:41.568Z,99855.19
2022-10-23T17:49:08.110Z,99870.19
2022-10-23T17:51:35.747Z,99860.94
2022-10-23T17:54:05.342Z,99871.72
2022-10-23T17:56:33.051Z,99880.84
2022-10-23T17:59:02.719Z,99888.16
2022-10-23T18:01:29.772Z,99892.22
2022-10-23T18:03:59.756Z,99883.53
2022-10-23T18:06:29.764Z,99886.50
2022-10-23T18:08:56.568Z,99885.47
2022-10-23T18:11:26.345Z,99884.00
2022-10-23T18:13:53.695Z,99895.16
2022-10-23T18:16:20.851Z,99901.28
2022-10-23T18:18:48.499Z,99903.69
2022-10-23T18:21:16.561Z,99913.13
2022-10-23T18:23:43.071Z,99916.00
2022-10-23T18:26:24.463Z,99927.44
2022-10-23T18:28:53.218Z,99927.94
2022-10-23T18:31:20.158Z,99941.09
2022-10-23T18:33:47.199Z,99947.50
2022-10-23T18:36:22.119Z,99959.09
2022-10-23T18:38:49.062Z,99959.34
2022-10-23T18:41:16.287Z,99958.56
2022-10-23T18:43:44.377Z,99957.69
2022-10-23T18:46:15.223Z,99955.88
2022-10-23T18:48:42.641Z,99946.03
2022-10-23T18:51:24.683Z,99929.25
2022-10-23T18:53:51.725Z,99920.72
2022-10-23T18:56:20.771Z,99936.16
2022-10-23T18:58:47.439Z,99921.41
2022-10-23T19:01:13.815Z,99911.66
2022-10-23T19:03:40.289Z,99900.91
2022-10-23T19:06:08.167Z,99888.16
2022-10-23T19:08:39.907Z,99854.50
2022-10-23T19:11:10.135Z,99812.59
2022-10-23T19:13:39.027Z,99773.44
2022-10-23T19:16:21.122Z,99749.53
2022-10-23T19:18:54.011Z,99762.41
2022-10-23T19:21:23.721Z,99757.97
2022-10-23T19:23:50.622Z,99746.13
2022-10-23T19:26:17.425Z,99730.75
2022-10-23T19:28:47.310Z,99738.38
2022-10-23T19:31:13.788Z,99772.47
2022-10-23T19:33:40.148Z,99777.72
2022-10-23T19:36:11.100Z,99762.69
2022-10-23T19:38:40.401Z,99775.47
2022-10-23T19:41:07.295Z,99748.66
2022-10-23T19:43:33.643Z,99746.13
2022-10-23T19:46:06.499Z,99756.22
2022-10-23T19:48:35.832Z,99762.34
2022-10-23T19:51:02.175Z,99758.94
2022-10-23T19:53:28.549Z,99753.38
2022-10-23T19:56:03.638Z,99753.56
2022-10-23T19:58:29.981Z,99761.53
2022-10-23T20:00:56.325Z,99759.47
2022-10-23T20:03:22.654Z,99756.75
2022-10-23T20:05:48.964Z,99739.91
2022-10-23T20:08:15.431Z,99740.38
2022-10-23T20:10:43.140Z,99741.56
2022-10-23T20:13:19.332Z,99750.34
2022-10-23T20:15:46.794Z,99751.94
2022-10-23T20:18:13.099Z,99760.81
2022-10-23T20:20:40.883Z,99761.13
2022-10-23T20:23:07.426Z,99752.63
2022-10-23T20:25:33.774Z,99750.78
2022-10-23T20:28:00.169Z,99747.56
2022-10-23T20:30:26.559Z,99760.50
2022-10-23T20:32:52.948Z,99765.84
2022-10-23T20:35:19.305Z,99772.75
2022-10-23T20:37:46.101Z,99776.88
2022-10-23T20:40:12.723Z,99765.38
2022-10-23T20:42:39.054Z,99757.97
2022-10-23T20:45:05.999Z,99752.72
2022-10-23T20:47:32.343Z,99751.13
2022-10-23T20:49:58.693Z,99744.09
2022-10-23T20:52:25.032Z,99748.63
2022-10-23T20:54:51.352Z,99743.97
2022-10-23T20:57:20.597Z,99743.13
2022-10-23T20:59:47.760Z,99744.59
2022-10-23T21:02:14.146Z,99737.06
2022-10-23T21:04:40.567Z,99737.59
2022-10-23T21:07:11.432Z,99737.72
2022-10-23T21:09:38.862Z,99739.97
2022-10-23T21:12:06.107Z,99728.28
2022-10-23T21:14:32.517Z,99730.28
2022-10-23T21:16:58.902Z,99734.94
2022-10-23T21:19:25.243Z,99728.03
2022-10-23T21:21:51.563Z,99719.38
2022-10-23T21:24:17.913Z,99718.47
2022-10-23T21:26:45.282Z,99719.13
2022-10-23T21:29:18.550Z,99725.16
2022-10-23T21:31:45.209Z,99735.00
2022-10-23T21:36:54.153Z,99738.69
2022-10-23T21:39:29.168Z,99747.81
2022-10-23T21:41:55.479Z,99752.41
2022-10-23T21:44:21.857Z,99753.34
2022-10-23T21:46:48.163Z,99756.88
2022-10-23T21:49:14.489Z,99765.09
2022-10-23T21:51:40.870Z,99764.78
2022-10-23T21:54:11.317Z,99772.81
2022-10-23T21:56:45.081Z,99782.59
2022-10-23T21:59:16.511Z,99801.94
2022-10-23T22:01:45.618Z,99804.28
2022-10-23T22:04:13.490Z,99809.88
2022-10-23T22:06:41.099Z,99818.38
2022-10-23T22:09:08.869Z,99811.94
2022-10-23T22:11:35.272Z,99821.88
2022-10-23T22:14:01.577Z,99832.25
2022-10-23T22:16:28.135Z,99835.16
2022-10-23T22:18:54.486Z,99834.50
2022-10-23T22:21:26.703Z,99839.63
2022-10-23T22:23:58.028Z,99832.91
2022-10-23T22:26:31.705Z,99834.59
2022-10-23T22:29:00.861Z,99819.66
2022-10-23T22:31:29.887Z,99820.22
2022-10-23T22:33:57.212Z,99833.09
2022-10-23T22:36:24.765Z,99843.00
2022-10-23T22:38:51.515Z,99840.41
2022-10-23T22:41:18.075Z,99822.34
2022-10-23T22:43:44.447Z,99817.25
2022-10-23T22:46:16.690Z,99808.31
2022-10-23T22:48:43.624Z,99806.41
2022-10-23T22:51:15.357Z,99817.56
2022-10-23T22:53:42.501Z,99836.19
2022-10-23T22:56:11.920Z,99815.63
2022-10-23T22:58:38.288Z,99818.31
2022-10-23T23:01:09.419Z,99825.56
2022-10-23T23:03:37.410Z,99827.84
2022-10-23T23:06:06.415Z,99829.63
2022-10-23T23:08:33.502Z,99834.34
2022-10-23T23:11:00.704Z,99826.63
2022-10-23T23:13:27.806Z,99815.25
2022-10-23T23:15:55.097Z,99817.91
2022-10-23T23:18:21.841Z,99814.63
2022-10-23T23:20:48.544Z,99808.69
2022-10-23T23:23:15.458Z,99809.81
2022-10-23T23:25:43.597Z,99809.53
2022-10-23T23:28:17.036Z,99803.03
2022-10-23T23:30:43.822Z,99803.56
2022-10-23T23:33:11.525Z,99802.47
2022-10-23T23:35:42.965Z,99810.94
2022-10-23T23:38:09.992Z,99814.69
2022-10-23T23:40:36.345Z,99806.97
2022-10-23T23:43:03.433Z,99807.47
2022-10-23T23:45:29.795Z,99811.22
2022-10-23T23:47:57.285Z,99808.47
2022-10-23T23:50:24.918Z,99803.22
2022-10-23T23:52:51.341Z,99801.59
2022-10-23T23:55:17.751Z,99793.75
2022-10-23T23:57:44.230Z,99792.84
